Time;durP1;ratioP1;P1;durP2;ratioP2;P2;SDS_P1;SDS_P2;PMS_P1;PMS_P2;Temp;Humidity;BMP_temperature;BMP_pressure;BME280_temperature;BME280_humidity;BME280_pressure;Samples;Min_cycle;Max_cycle;Signal;HPM_P1;HPM_P2
2023/03/24 00:00:59;;;;;;;2.03;1.23;;;12.00;99.90;;;;;;5096059;28;20236;-50
2023/03/24 00:03:26;;;;;;;1.83;1.00;;;12.00;99.90;;;;;;5096319;28;20163;-50
2023/03/24 00:06:01;;;;;;;2.77;1.77;;;12.00;99.90;;;;;;5096041;28;20650;-50
2023/03/24 00:08:35;;;;;;;3.63;1.50;;;12.10;99.90;;;;;;5095817;28;20516;-51
2023/03/24 00:11:03;;;;;;;2.50;1.40;;;12.00;99.90;;;;;;5096337;28;20531;-52
2023/03/24 00:13:30;;;;;;;1.37;1.10;;;12.00;99.90;;;;;;5096212;28;20213;-52
2023/03/24 00:15:56;;;;;;;2.10;1.40;;;12.10;99.90;;;;;;5096023;28;20657;-50
2023/03/24 00:18:24;;;;;;;1.23;1.00;;;12.00;99.90;;;;;;5096186;28;20179;-51
2023/03/24 00:20:57;;;;;;;2.27;1.40;;;12.00;99.90;;;;;;5095754;28;20278;-51
2023/03/24 00:23:31;;;;;;;1.10;1.00;;;12.00;99.90;;;;;;5096105;28;20649;-52
2023/03/24 00:26:14;;;;;;;2.13;1.57;;;12.00;99.90;;;;;;5096780;28;20167;-51
2023/03/24 00:28:42;;;;;;;2.50;1.40;;;12.10;99.90;;;;;;5095985;28;20242;-50
2023/03/24 00:31:08;;;;;;;3.53;1.20;;;12.10;99.90;;;;;;5095889;28;20198;-52
2023/03/24 00:33:34;;;;;;;2.70;1.50;;;12.10;99.90;;;;;;5095579;28;20223;-51
2023/03/24 00:36:06;;;;;;;1.73;1.50;;;12.10;99.90;;;;;;5095745;28;20167;-51
2023/03/24 00:38:33;;;;;;;2.00;1.20;;;12.10;99.90;;;;;;5095943;28;20526;-51
2023/03/24 00:41:00;;;;;;;2.07;1.37;;;12.10;99.90;;;;;;5095842;28;20191;-51
2023/03/24 00:43:27;;;;;;;1.70;1.50;;;12.10;99.90;;;;;;5095586;28;20179;-50
2023/03/24 00:46:06;;;;;;;1.43;1.33;;;12.10;99.90;;;;;;5096007;28;20187;-49
2023/03/24 00:48:32;;;;;;;3.80;1.70;;;12.10;99.90;;;;;;5095722;28;20167;-49
2023/03/24 00:51:01;;;;;;;1.80;1.50;;;12.10;99.90;;;;;;5095186;28;20578;-50
2023/03/24 00:53:28;;;;;;;4.83;1.67;;;12.10;99.90;;;;;;5095464;28;20182;-50
2023/03/24 00:55:54;;;;;;;2.17;1.40;;;12.10;99.90;;;;;;5095527;28;20248;-49
2023/03/24 00:58:23;;;;;;;2.13;1.70;;;12.10;99.90;;;;;;5095222;28;20183;-50
2023/03/24 01:00:51;;;;;;;2.73;1.77;;;12.00;99.90;;;;;;5095297;28;20611;-51
2023/03/24 01:03:20;;;;;;;1.57;1.47;;;12.10;99.90;;;;;;5094950;28;20174;-51
2023/03/24 01:05:47;;;;;;;2.83;1.80;;;12.10;99.90;;;;;;5093681;28;20183;-51
2023/03/24 01:08:14;;;;;;;2.27;1.50;;;12.10;99.90;;;;;;5094830;28;20232;-45
2023/03/24 01:10:49;;;;;;;5.53;1.43;;;12.10;99.90;;;;;;5095001;28;20198;-45
2023/03/24 01:13:27;;;;;;;4.17;1.60;;;12.10;99.90;;;;;;5095575;28;20196;-45
2023/03/24 01:15:53;;;;;;;2.83;1.60;;;12.10;99.90;;;;;;5095267;28;20174;-45
2023/03/24 01:18:20;;;;;;;2.17;1.60;;;12.10;99.90;;;;;;5094986;28;20527;-45
2023/03/24 01:20:47;;;;;;;3.60;1.80;;;12.10;99.90;;;;;;5094001;28;20539;-44
2023/03/24 01:23:16;;;;;;;2.23;1.80;;;12.20;99.90;;;;;;5094873;28;20224;-46
2023/03/24 01:25:44;;;;;;;2.43;1.87;;;12.20;99.90;;;;;;5094859;28;20182;-46
2023/03/24 01:28:11;;;;;;;2.27;1.77;;;12.20;99.90;;;;;;5094789;28;20183;-44
2023/03/24 01:30:37;;;;;;;2.43;1.80;;;12.20;99.90;;;;;;5094631;28;20199;-44
2023/03/24 01:33:03;;;;;;;2.67;1.63;;;12.20;99.90;;;;;;5094429;28;20707;-45
2023/03/24 01:35:28;;;;;;;3.50;1.60;;;12.30;99.90;;;;;;5094693;28;20175;-46
2023/03/24 01:37:54;;;;;;;3.80;1.50;;;12.30;99.90;;;;;;5094600;28;20175;-45
2023/03/24 01:40:23;;;;;;;1.90;1.70;;;12.30;99.90;;;;;;5094473;28;20510;-46
2023/03/24 01:42:50;;;;;;;2.67;1.90;;;12.30;99.90;;;;;;5094501;28;20186;-46
2023/03/24 01:45:37;;;;;;;3.00;1.70;;;12.30;99.90;;;;;;5094150;28;20256;-45
2023/03/24 01:48:06;;;;;;;4.93;1.60;;;12.30;99.90;;;;;;5094176;28;20576;-46
2023/03/24 01:50:32;;;;;;;2.27;1.70;;;12.30;99.90;;;;;;5094031;28;20191;-45
2023/03/24 01:52:58;;;;;;;2.70;1.80;;;12.40;99.90;;;;;;5094309;28;20695;-47
2023/03/24 01:55:24;;;;;;;1.80;1.70;;;12.40;99.90;;;;;;5094064;28;20179;-44
2023/03/24 01:57:57;;;;;;;3.00;1.90;;;12.40;99.90;;;;;;5094292;28;20200;-45
2023/03/24 02:00:23;;;;;;;2.57;1.60;;;12.40;99.90;;;;;;5093798;28;20224;-48
2023/03/24 02:02:53;;;;;;;2.13;1.53;;;12.50;99.90;;;;;;5094160;28;20193;-46
2023/03/24 02:05:23;;;;;;;3.07;1.90;;;12.50;99.90;;;;;;5094050;28;20565;-46
2023/03/24 02:07:52;;;;;;;2.37;1.93;;;12.50;99.90;;;;;;5092847;28;20215;-47
2023/03/24 02:10:19;;;;;;;2.47;1.90;;;12.50;99.90;;;;;;5093841;28;20167;-46
2023/03/24 02:12:45;;;;;;;3.00;1.93;;;12.50;99.90;;;;;;5094701;28;20531;-45
2023/03/24 02:15:13;;;;;;;2.03;1.70;;;12.50;99.90;;;;;;5094088;28;20178;-45
2023/03/24 02:18:04;;;;;;;3.13;1.80;;;12.50;99.90;;;;;;5093983;28;20181;-45
2023/03/24 02:21:00;;;;;;;2.30;1.80;;;12.60;99.90;;;;;;5093508;28;20666;-46
2023/03/24 02:23:59;;;;;;;2.80;2.00;;;12.60;99.90;;;;;;5093830;28;20259;-45
2023/03/24 02:26:51;;;;;;;3.83;1.97;;;12.60;99.90;;;;;;5093842;28;20163;-47
2023/03/24 02:29:35;;;;;;;4.13;2.00;;;12.70;99.90;;;;;;5093915;28;20199;-46
2023/03/24 02:32:08;;;;;;;3.20;1.70;;;12.70;99.90;;;;;;5093381;28;20654;-45
2023/03/24 02:35:03;;;;;;;2.33;1.90;;;12.80;99.90;;;;;;5093524;28;20191;-46
2023/03/24 02:37:53;;;;;;;1.97;1.40;;;12.80;99.90;;;;;;5093755;28;20187;-44
2023/03/24 02:40:28;;;;;;;3.23;1.80;;;12.90;99.90;;;;;;5093672;28;20187;-45
2023/03/24 02:42:58;;;;;;;2.57;1.47;;;12.90;99.90;;;;;;5093649;28;20206;-45
2023/03/24 02:45:47;;;;;;;2.20;1.77;;;13.00;99.90;;;;;;5093652;28;20218;-46
2023/03/24 02:48:24;;;;;;;2.67;1.63;;;13.10;99.90;;;;;;5093553;28;20527;-47
2023/03/24 02:51:02;;;;;;;2.23;1.70;;;13.10;99.90;;;;;;5093545;28;20677;-47
2023/03/24 02:53:50;;;;;;;4.20;1.97;;;13.20;99.90;;;;;;5093658;28;20171;-45
2023/03/24 02:56:20;;;;;;;3.17;1.60;;;13.10;99.90;;;;;;5093869;28;20197;-46
2023/03/24 02:58:45;;;;;;;2.10;1.80;;;13.20;99.90;;;;;;5093256;28;20211;-46
2023/03/24 03:01:13;;;;;;;2.77;1.43;;;13.30;99.90;;;;;;5094197;28;20622;-45
2023/03/24 03:03:50;;;;;;;2.17;1.60;;;13.30;99.90;;;;;;5093391;28;20638;-47
2023/03/24 03:06:28;;;;;;;5.53;2.13;;;13.30;99.90;;;;;;5093518;28;20167;-46
2023/03/24 03:08:59;;;;;;;3.57;1.60;;;13.30;99.90;;;;;;5093549;28;20163;-47
2023/03/24 03:11:25;;;;;;;2.20;1.63;;;13.30;99.90;;;;;;5093837;28;20641;-47
2023/03/24 03:14:05;;;;;;;2.77;2.00;;;13.40;99.90;;;;;;5093778;28;20245;-48
2023/03/24 03:16:52;;;;;;;4.00;1.90;;;13.40;99.90;;;;;;5093134;28;20178;-48
2023/03/24 03:19:21;;;;;;;3.17;1.80;;;13.40;99.90;;;;;;5093175;28;20627;-48
2023/03/24 03:21:49;;;;;;;2.70;1.80;;;13.40;99.90;;;;;;5093827;28;20251;-49
2023/03/24 03:24:25;;;;;;;5.43;2.20;;;13.40;99.90;;;;;;5093934;28;20191;-49
2023/03/24 03:26:56;;;;;;;2.57;2.07;;;13.40;99.90;;;;;;5095062;28;20190;-47
2023/03/24 03:29:27;;;;;;;3.03;2.00;;;13.40;99.90;;;;;;5093551;28;20170;-48
2023/03/24 03:31:59;;;;;;;2.43;1.70;;;13.40;99.90;;;;;;5093516;28;20203;-48
2023/03/24 03:34:36;;;;;;;4.23;2.10;;;13.40;99.90;;;;;;5093569;28;20176;-49
2023/03/24 03:37:08;;;;;;;5.30;2.47;;;13.40;99.90;;;;;;5093321;28;20186;-47
2023/03/24 03:39:42;;;;;;;3.00;1.90;;;13.40;99.90;;;;;;5092982;28;20182;-47
2023/03/24 03:42:08;;;;;;;2.87;2.10;;;13.40;99.90;;;;;;5092970;28;20198;-47
2023/03/24 03:44:34;;;;;;;4.07;2.43;;;13.40;99.90;;;;;;5095276;28;20202;-48
2023/03/24 03:46:59;;;;;;;3.17;2.07;;;13.40;99.90;;;;;;5096704;28;20179;-48
2023/03/24 03:49:25;;;;;;;2.20;2.00;;;13.40;99.90;;;;;;5096661;28;20646;-48
2023/03/24 03:51:51;;;;;;;2.33;2.13;;;13.40;99.90;;;;;;5095217;28;20555;-47
2023/03/24 03:54:18;;;;;;;3.00;2.27;;;13.30;99.90;;;;;;5096310;28;20702;-49
2023/03/24 03:56:45;;;;;;;2.00;1.10;;;13.30;99.90;;;;;;5096290;28;20198;-48
2023/03/24 03:59:36;;;;;;;3.10;2.27;;;13.30;99.90;;;;;;5096339;28;20256;-47
2023/03/24 04:02:15;;;;;;;3.23;1.97;;;13.30;99.90;;;;;;5096204;28;20195;-48
2023/03/24 04:05:04;;;;;;;3.93;2.17;;;13.20;99.90;;;;;;5096287;28;20191;-49
2023/03/24 04:07:35;;;;;;;3.47;2.40;;;13.20;99.90;;;;;;5096599;28;20155;-47
2023/03/24 04:10:26;;;;;;;4.43;2.30;;;13.10;99.90;;;;;;5096026;28;20175;-47
2023/03/24 04:12:58;;;;;;;3.60;1.90;;;13.10;99.90;;;;;;5096398;28;20179;-48
2023/03/24 04:15:53;;;;;;;3.37;2.50;;;13.00;99.90;;;;;;5095951;28;20191;-47
2023/03/24 04:18:28;;;;;;;2.80;1.70;;;12.80;99.90;;;;;;5096270;28;20163;-47
2023/03/24 04:21:41;;;;;;;2.90;2.07;;;12.80;99.90;;;;;;5095930;28;20191;-47
2023/03/24 04:24:35;;;;;;;2.17;1.83;;;12.70;99.90;;;;;;5096120;28;20214;-47
2023/03/24 04:27:30;;;;;;;2.50;1.90;;;12.70;99.90;;;;;;5093478;28;20186;-46
2023/03/24 04:30:23;;;;;;;2.57;1.80;;;12.60;99.90;;;;;;5086677;28;20556;-48
2023/03/24 04:32:57;;;;;;;4.13;1.80;;;12.60;99.90;;;;;;5095928;28;20159;-46
2023/03/24 04:35:32;;;;;;;3.03;1.73;;;12.50;99.90;;;;;;5095859;28;20167;-48
2023/03/24 04:38:03;;;;;;;2.67;1.87;;;12.60;99.90;;;;;;5095798;28;20185;-47
2023/03/24 04:40:35;;;;;;;3.37;1.63;;;12.50;99.90;;;;;;5095724;28;20258;-48
2023/03/24 04:43:04;;;;;;;2.53;1.77;;;12.40;99.90;;;;;;5095766;28;20668;-47
2023/03/24 04:45:32;;;;;;;2.10;1.70;;;12.40;99.90;;;;;;5095276;28;20202;-47
2023/03/24 04:48:00;;;;;;;2.57;1.40;;;12.40;99.90;;;;;;5095333;28;20178;-47
2023/03/24 04:50:35;;;;;;;2.73;1.57;;;12.30;99.90;;;;;;5095577;28;20183;-47
2023/03/24 04:53:03;;;;;;;3.07;1.50;;;12.30;99.90;;;;;;5095463;28;20231;-48
2023/03/24 04:55:31;;;;;;;3.57;1.40;;;12.20;99.90;;;;;;5093927;28;20179;-47
2023/03/24 04:57:57;;;;;;;1.97;1.40;;;12.20;99.90;;;;;;5095130;28;20612;-48
2023/03/24 05:00:23;;;;;;;1.47;1.30;;;12.10;99.90;;;;;;5094958;28;20308;-49
2023/03/24 05:02:51;;;;;;;2.00;1.33;;;12.10;99.90;;;;;;5095605;28;20187;-48
2023/03/24 05:05:17;;;;;;;1.97;1.30;;;12.00;99.90;;;;;;5095183;28;20675;-48
2023/03/24 05:07:43;;;;;;;4.03;1.33;;;12.00;99.90;;;;;;5095072;28;20183;-48
2023/03/24 05:10:09;;;;;;;2.73;1.67;;;11.90;99.90;;;;;;5094874;28;20258;-48
2023/03/24 05:12:35;;;;;;;3.57;1.20;;;11.90;99.90;;;;;;5095037;28;20175;-49
2023/03/24 05:15:01;;;;;;;2.80;1.47;;;11.90;99.90;;;;;;5093522;28;20592;-47
2023/03/24 05:17:26;;;;;;;2.17;1.20;;;11.80;99.90;;;;;;5094798;28;20205;-48
2023/03/24 05:19:52;;;;;;;1.57;1.00;;;11.70;99.90;;;;;;5094723;28;20182;-47
2023/03/24 05:22:17;;;;;;;2.40;1.13;;;11.60;99.90;;;;;;5094584;28;20218;-50
2023/03/24 05:24:43;;;;;;;3.17;1.23;;;11.50;99.90;;;;;;5094513;28;20195;-48
2023/03/24 05:27:09;;;;;;;5.17;1.07;;;11.40;99.90;;;;;;5094582;28;20588;-48
2023/03/24 05:29:34;;;;;;;3.90;1.10;;;11.30;99.90;;;;;;5094448;28;20183;-49
2023/03/24 05:32:00;;;;;;;3.07;0.90;;;11.20;99.90;;;;;;5094500;28;20248;-48
2023/03/24 05:34:25;;;;;;;5.50;1.27;;;11.20;99.90;;;;;;5094481;28;20204;-50
2023/03/24 05:36:51;;;;;;;3.70;1.10;;;11.10;99.90;;;;;;5094411;28;20182;-47
2023/03/24 05:39:17;;;;;;;3.50;1.13;;;11.00;99.90;;;;;;5094358;28;20218;-49
2023/03/24 05:41:43;;;;;;;6.67;1.53;;;10.90;99.90;;;;;;5094421;28;20225;-49
2023/03/24 05:44:08;;;;;;;2.67;0.80;;;10.80;99.90;;;;;;5095016;28;20195;-47
2023/03/24 05:46:34;;;;;;;3.67;1.27;;;10.80;99.90;;;;;;5094635;28;20171;-48
2023/03/24 05:49:00;;;;;;;4.63;1.40;;;10.80;99.90;;;;;;5094543;28;20199;-49
2023/03/24 05:51:25;;;;;;;6.23;1.20;;;10.80;99.90;;;;;;5093119;28;20213;-48
2023/03/24 05:53:51;;;;;;;4.07;1.43;;;10.70;99.90;;;;;;5094351;28;20191;-49
2023/03/24 05:56:17;;;;;;;2.00;0.97;;;10.60;99.90;;;;;;5093989;28;20186;-49
2023/03/24 05:58:43;;;;;;;4.17;1.17;;;10.70;99.90;;;;;;5094077;28;20263;-48
2023/03/24 06:01:09;;;;;;;3.53;1.00;;;10.60;99.90;;;;;;5094268;28;20244;-50
2023/03/24 06:03:38;;;;;;;3.43;1.20;;;10.60;99.90;;;;;;5095316;28;20171;-49
2023/03/24 06:06:07;;;;;;;1.73;0.97;;;10.60;99.90;;;;;;5094288;28;20171;-48
2023/03/24 06:08:33;;;;;;;3.10;1.33;;;10.60;99.90;;;;;;5093604;28;20193;-49
2023/03/24 06:11:01;;;;;;;9.07;1.70;;;10.60;99.90;;;;;;5093829;28;20194;-48
2023/03/24 06:13:28;;;;;;;4.43;1.20;;;10.60;99.90;;;;;;5094787;28;20206;-48
2023/03/24 06:15:57;;;;;;;6.30;1.97;;;10.50;99.90;;;;;;5093874;28;20186;-48
2023/03/24 06:18:23;;;;;;;2.97;1.53;;;10.50;99.90;;;;;;5093745;28;20187;-49
2023/03/24 06:20:49;;;;;;;5.83;1.73;;;10.40;99.90;;;;;;5094028;28;20668;-48
2023/03/24 06:23:16;;;;;;;5.10;1.50;;;10.30;99.90;;;;;;5093628;28;20231;-49
2023/03/24 06:25:44;;;;;;;6.20;1.90;;;10.30;99.90;;;;;;5094163;28;20281;-48
2023/03/24 06:28:11;;;;;;;4.20;1.73;;;10.20;99.90;;;;;;5093632;28;20544;-48
2023/03/24 06:30:37;;;;;;;5.97;2.00;;;10.10;99.90;;;;;;5093741;28;20207;-49
2023/03/24 06:33:03;;;;;;;5.93;1.67;;;10.10;99.90;;;;;;5093801;28;20269;-48
2023/03/24 06:35:28;;;;;;;8.40;2.10;;;10.00;99.90;;;;;;5093544;28;20623;-48
2023/03/24 06:37:54;;;;;;;9.40;2.27;;;10.00;99.90;;;;;;5093488;28;20646;-48
2023/03/24 06:40:20;;;;;;;9.90;2.20;;;10.00;99.90;;;;;;5093644;28;20192;-47
2023/03/24 06:42:46;;;;;;;9.10;2.10;;;10.00;99.90;;;;;;5093765;28;20558;-48
2023/03/24 06:45:11;;;;;;;5.03;2.10;;;9.90;99.90;;;;;;5093654;28;20195;-49
2023/03/24 06:47:37;;;;;;;6.27;1.80;;;9.90;99.90;;;;;;5093609;28;20174;-49
2023/03/24 06:50:03;;;;;;;5.77;1.77;;;9.90;99.90;;;;;;5093397;28;20561;-49
2023/03/24 06:52:29;;;;;;;11.13;2.27;;;9.90;99.90;;;;;;5093555;28;20202;-49
2023/03/24 06:54:56;;;;;;;7.93;2.60;;;9.90;99.90;;;;;;5093279;28;20545;-48
2023/03/24 06:57:21;;;;;;;10.20;2.43;;;9.90;99.90;;;;;;5093283;28;20658;-47
2023/03/24 06:59:47;;;;;;;7.97;2.67;;;9.90;99.90;;;;;;5091957;28;20202;-47
2023/03/24 07:02:13;;;;;;;7.30;2.40;;;9.90;99.90;;;;;;5093486;28;20202;-49
2023/03/24 07:04:38;;;;;;;9.30;2.97;;;9.90;99.90;;;;;;5093452;28;20209;-49
2023/03/24 07:07:04;;;;;;;9.03;2.90;;;9.90;99.90;;;;;;5093463;28;20171;-48
2023/03/24 07:09:30;;;;;;;10.17;3.03;;;10.00;99.90;;;;;;5093431;28;20561;-49
2023/03/24 07:11:55;;;;;;;8.17;2.60;;;10.00;99.90;;;;;;5093405;28;20586;-48
2023/03/24 07:14:24;;;;;;;8.70;2.77;;;10.00;99.90;;;;;;5093533;28;20205;-49
2023/03/24 07:16:50;;;;;;;10.53;2.77;;;10.20;99.90;;;;;;5091012;22;20249;-50
2023/03/24 07:19:16;;;;;;;8.33;2.77;;;10.30;99.90;;;;;;5075451;28;20641;-48
2023/03/24 07:21:41;;;;;;;8.93;3.13;;;10.50;99.90;;;;;;5076845;28;20202;-49
2023/03/24 07:24:07;;;;;;;7.73;2.10;;;10.70;99.90;;;;;;5076911;28;20683;-49
2023/03/24 07:26:32;;;;;;;8.23;2.20;;;10.80;99.90;;;;;;5076725;28;20172;-48
2023/03/24 07:28:58;;;;;;;15.07;2.53;;;11.00;99.90;;;;;;5076656;28;20175;-49
2023/03/24 07:31:23;;;;;;;8.73;1.90;;;11.20;99.90;;;;;;5058568;28;20203;-49
2023/03/24 07:33:49;;;;;;;6.70;2.00;;;11.20;99.90;;;;;;5076689;28;20207;-48
2023/03/24 07:36:15;;;;;;;4.70;2.03;;;11.30;99.90;;;;;;5076701;28;20175;-49
2023/03/24 07:38:41;;;;;;;9.20;1.77;;;11.40;99.90;;;;;;5076733;28;20191;-48
2023/03/24 07:41:06;;;;;;;4.57;1.50;;;11.50;99.90;;;;;;5076600;28;20195;-47
2023/03/24 07:43:32;;;;;;;9.43;2.60;;;11.60;99.90;;;;;;5076216;28;20274;-46
2023/03/24 07:45:57;;;;;;;6.90;1.87;;;11.70;99.90;;;;;;5076606;28;20265;-48
2023/03/24 07:48:23;;;;;;;6.43;1.80;;;11.80;99.90;;;;;;5076435;28;20171;-47
2023/03/24 07:50:51;;;;;;;6.77;1.80;;;11.90;99.90;;;;;;5076404;28;20223;-48
2023/03/24 07:53:18;;;;;;;8.53;1.90;;;11.90;99.90;;;;;;5076415;28;20221;-47
2023/03/24 07:55:44;;;;;;;8.60;2.27;;;11.80;99.90;;;;;;5076381;28;20183;-46
2023/03/24 07:58:10;;;;;;;12.83;2.97;;;11.90;99.90;;;;;;5076358;28;20681;-48
2023/03/24 08:00:37;;;;;;;9.90;2.13;;;12.00;99.90;;;;;;5078758;28;20195;-50
2023/03/24 08:03:03;;;;;;;10.80;2.37;;;12.10;99.90;;;;;;5079066;28;20179;-50
2023/03/24 08:05:29;;;;;;;12.33;2.27;;;12.20;99.90;;;;;;5077993;28;20199;-47
2023/03/24 08:07:56;;;;;;;12.37;2.40;;;12.40;99.90;;;;;;5078359;28;20175;-47
2023/03/24 08:10:28;;;;;;;6.33;2.07;;;12.50;99.90;;;;;;5077661;28;20233;-48
2023/03/24 08:12:55;;;;;;;12.80;2.30;;;12.60;99.90;;;;;;5077478;28;20160;-46
2023/03/24 08:15:21;;;;;;;12.97;3.03;;;12.60;99.90;;;;;;5076584;28;21125;-47
2023/03/24 08:17:48;;;;;;;10.00;2.73;;;12.50;99.90;;;;;;5076114;28;20195;-47
2023/03/24 08:20:14;;;;;;;7.43;2.30;;;12.40;99.90;;;;;;5076237;28;20183;-47
2023/03/24 08:22:41;;;;;;;11.43;2.70;;;12.30;99.90;;;;;;5075950;28;20676;-46
2023/03/24 08:25:09;;;;;;;10.07;2.70;;;12.20;99.90;;;;;;5075426;28;20214;-48
2023/03/24 08:27:36;;;;;;;8.13;2.50;;;12.10;99.90;;;;;;5075867;28;20176;-47
2023/03/24 08:30:03;;;;;;;8.37;2.60;;;12.10;99.90;;;;;;5075327;28;20189;-48
2023/03/24 08:32:29;;;;;;;11.50;2.33;;;12.10;99.90;;;;;;5075403;28;20215;-48
2023/03/24 08:34:56;;;;;;;9.30;3.50;;;12.20;99.90;;;;;;5075678;28;20225;-48
2023/03/24 08:37:22;;;;;;;13.50;3.37;;;12.30;99.90;;;;;;5075265;28;20179;-46
2023/03/24 08:39:47;;;;;;;12.57;3.83;;;12.40;99.90;;;;;;5075566;28;20187;-46
2023/03/24 08:42:13;;;;;;;8.70;2.87;;;12.40;99.90;;;;;;5075183;28;20196;-47
2023/03/24 08:44:38;;;;;;;9.80;2.87;;;12.40;99.90;;;;;;5075355;28;20568;-46
2023/03/24 08:47:04;;;;;;;13.57;2.80;;;12.50;99.90;;;;;;5075172;28;20580;-48
2023/03/24 08:49:30;;;;;;;13.50;4.00;;;12.50;99.90;;;;;;5075014;28;20182;-49
2023/03/24 08:51:56;;;;;;;6.60;3.10;;;12.60;99.90;;;;;;5075156;28;20345;-47
2023/03/24 08:54:23;;;;;;;11.30;3.23;;;12.70;99.90;;;;;;5075075;28;20702;-48
2023/03/24 08:56:49;;;;;;;8.90;2.90;;;12.70;99.90;;;;;;5074831;28;20716;-47
2023/03/24 08:59:15;;;;;;;14.80;3.60;;;12.70;99.90;;;;;;5075156;28;20179;-47
2023/03/24 09:01:40;;;;;;;13.03;2.60;;;12.70;99.90;;;;;;5075042;28;20211;-47
2023/03/24 09:04:07;;;;;;;9.33;2.97;;;12.90;99.90;;;;;;5074930;28;20303;-47
2023/03/24 09:06:33;;;;;;;8.17;1.97;;;13.00;99.90;;;;;;5075022;28;20266;-47
2023/03/24 09:08:58;;;;;;;10.23;2.67;;;13.00;99.90;;;;;;5075001;28;20214;-47
2023/03/24 09:11:24;;;;;;;8.67;2.77;;;13.00;99.90;;;;;;5074902;28;20194;-47
2023/03/24 09:13:49;;;;;;;10.10;2.47;;;13.00;99.90;;;;;;5075121;28;20491;-47
2023/03/24 09:16:16;;;;;;;9.83;2.63;;;13.10;99.90;;;;;;5074593;28;20199;-47
2023/03/24 09:18:42;;;;;;;10.07;2.47;;;13.20;99.90;;;;;;5074810;28;20184;-46
2023/03/24 09:21:08;;;;;;;10.17;3.00;;;13.20;99.90;;;;;;5056505;28;20203;-47
2023/03/24 09:23:34;;;;;;;8.77;2.80;;;13.20;99.90;;;;;;5074391;28;20206;-47
2023/03/24 09:26:00;;;;;;;7.20;2.83;;;13.20;99.90;;;;;;5074572;28;20215;-47
2023/03/24 09:28:26;;;;;;;9.30;2.17;;;13.20;99.90;;;;;;5074395;28;20172;-47
2023/03/24 09:31:00;;;;;;;8.07;1.57;;;13.20;99.90;;;;;;5074237;28;20546;-47
2023/03/24 09:33:28;;;;;;;8.63;1.70;;;13.20;99.90;;;;;;5074474;28;20172;-49
2023/03/24 09:35:55;;;;;;;9.57;2.03;;;13.30;99.90;;;;;;5074190;28;20731;-47
2023/03/24 09:38:21;;;;;;;8.60;1.63;;;13.30;99.90;;;;;;5074409;28;20183;-48
2023/03/24 09:40:51;;;;;;;12.03;1.90;;;13.40;99.90;;;;;;5073992;28;20200;-48
2023/03/24 09:43:41;;;;;;;8.23;2.03;;;13.50;99.90;;;;;;5073650;28;20510;-48
2023/03/24 09:46:14;;;;;;;11.90;2.33;;;13.60;99.90;;;;;;5073998;28;20187;-46
2023/03/24 09:48:49;;;;;;;6.50;2.10;;;13.50;99.90;;;;;;5074073;28;20183;-47
2023/03/24 09:51:22;;;;;;;6.63;2.00;;;13.50;99.90;;;;;;5077759;28;20202;-47
2023/03/24 09:53:59;;;;;;;8.60;1.80;;;13.60;99.90;;;;;;5075568;28;20702;-48
2023/03/24 09:56:25;;;;;;;5.13;1.43;;;13.60;99.90;;;;;;5074256;28;20182;-48
2023/03/24 09:59:18;;;;;;;10.43;2.20;;;13.60;99.90;;;;;;5074075;28;20183;-45
2023/03/24 10:01:44;;;;;;;10.27;1.83;;;13.50;99.90;;;;;;5046888;28;20216;-49
2023/03/24 10:04:16;;;;;;;5.83;1.57;;;13.40;99.90;;;;;;5073932;28;20204;-48
2023/03/24 10:06:42;;;;;;;5.30;1.73;;;13.50;99.90;;;;;;5073958;28;20172;-47
2023/03/24 10:09:20;;;;;;;11.57;2.03;;;13.50;99.90;;;;;;5073880;28;20562;-47
2023/03/24 10:12:04;;;;;;;8.13;2.17;;;13.50;99.90;;;;;;5055603;28;20199;-47
2023/03/24 10:14:39;;;;;;;7.90;2.10;;;13.60;99.90;;;;;;5073749;28;20249;-47
2023/03/24 10:17:17;;;;;;;9.53;2.37;;;13.60;99.90;;;;;;5073515;28;20608;-48
2023/03/24 10:20:01;;;;;;;7.83;1.57;;;13.60;99.90;;;;;;5074372;28;20168;-49
2023/03/24 10:22:35;;;;;;;8.07;2.13;;;13.60;99.90;;;;;;5073491;28;20685;-48
2023/03/24 10:25:17;;;;;;;6.20;2.00;;;13.80;99.90;;;;;;5073795;28;20211;-49
2023/03/24 10:27:50;;;;;;;11.23;2.10;;;14.00;99.90;;;;;;5073476;28;20166;-49
2023/03/24 10:30:22;;;;;;;4.73;1.70;;;14.20;99.90;;;;;;5073676;28;20533;-46
2023/03/24 10:32:48;;;;;;;5.87;1.30;;;14.40;99.90;;;;;;5073321;28;20706;-46
2023/03/24 10:35:34;;;;;;;2.10;0.93;;;14.50;99.90;;;;;;5073827;28;20188;-47
2023/03/24 10:38:06;;;;;;;10.37;1.80;;;14.50;99.90;;;;;;5055388;28;20183;-48
2023/03/24 10:40:32;;;;;;;8.70;1.83;;;14.50;99.90;;;;;;5073510;28;20208;-48
2023/03/24 10:43:02;;;;;;;12.40;2.20;;;14.50;99.90;;;;;;5073307;28;20263;-48
2023/03/24 10:45:31;;;;;;;8.63;1.53;;;14.50;99.90;;;;;;5073119;28;20605;-48
2023/03/24 10:48:00;;;;;;;11.10;2.13;;;14.50;99.90;;;;;;5073490;28;20171;-47
2023/03/24 10:50:28;;;;;;;8.83;1.97;;;14.50;99.90;;;;;;5073178;28;20191;-48
2023/03/24 10:52:54;;;;;;;6.30;1.60;;;14.50;99.90;;;;;;5074259;28;20233;-47
2023/03/24 10:55:27;;;;;;;3.00;1.10;;;14.40;99.90;;;;;;5077639;28;20191;-47
2023/03/24 10:57:56;;;;;;;9.07;1.93;;;14.50;99.90;;;;;;5077638;28;20168;-47
2023/03/24 11:00:30;;;;;;;9.10;2.27;;;14.60;99.90;;;;;;5077221;28;20187;-47
2023/03/24 11:03:10;;;;;;;8.90;1.67;;;14.70;99.90;;;;;;5077627;28;20210;-47
2023/03/24 11:05:38;;;;;;;3.90;1.47;;;14.70;99.90;;;;;;5077442;28;20592;-46
2023/03/24 11:08:16;;;;;;;7.33;1.63;;;14.80;99.90;;;;;;5077155;28;20172;-48
2023/03/24 11:10:42;;;;;;;11.03;2.13;;;14.80;99.90;;;;;;5077262;28;20203;-48
2023/03/24 11:13:17;;;;;;;4.67;1.73;;;14.90;99.90;;;;;;5077475;28;20176;-48
2023/03/24 11:15:58;;;;;;;8.03;1.60;;;15.10;99.90;;;;;;5059423;28;20662;-46
2023/03/24 11:18:23;;;;;;;7.40;2.00;;;15.10;99.90;;;;;;5077052;28;20253;-46
2023/03/24 11:20:56;;;;;;;7.40;1.77;;;15.20;99.90;;;;;;5077171;28;20279;-48
2023/03/24 11:23:36;;;;;;;11.07;1.50;;;15.40;99.90;;;;;;5077144;28;20167;-50
2023/03/24 11:26:13;;;;;;;5.47;1.33;;;15.50;99.90;;;;;;5077150;28;20573;-48
2023/03/24 11:28:51;;;;;;;9.83;1.43;;;15.40;99.90;;;;;;5076820;28;20178;-49
2023/03/24 11:31:39;;;;;;;7.03;1.80;;;15.30;99.90;;;;;;5076452;28;20253;-48
2023/03/24 11:34:24;;;;;;;11.63;1.97;;;15.40;99.90;;;;;;5077131;28;20160;-47
2023/03/24 11:36:57;;;;;;;6.53;2.07;;;15.40;99.90;;;;;;5076497;28;20195;-49
2023/03/24 11:39:33;;;;;;;6.57;2.13;;;15.40;99.90;;;;;;5076672;28;20587;-48
2023/03/24 11:42:04;;;;;;;4.57;1.93;;;15.30;99.90;;;;;;5076632;28;20234;-48
2023/03/24 11:44:50;;;;;;;8.60;2.17;;;15.30;99.90;;;;;;5058330;28;20214;-49
2023/03/24 11:47:35;;;;;;;8.30;1.93;;;15.30;99.90;;;;;;5076465;28;20635;-50
2023/03/24 11:50:09;;;;;;;9.93;1.60;;;15.40;99.90;;;;;;5076245;28;20617;-48
2023/03/24 11:52:47;;;;;;;6.10;1.90;;;15.40;99.90;;;;;;5076443;28;20694;-49
2023/03/24 11:55:20;;;;;;;6.73;1.97;;;15.50;99.90;;;;;;5076430;28;20179;-49
2023/03/24 11:57:57;;;;;;;6.97;1.77;;;15.60;99.90;;;;;;5076303;28;20250;-49
2023/03/24 12:00:32;;;;;;;10.10;3.10;;;15.60;99.90;;;;;;5076018;28;20172;-49
2023/03/24 12:03:31;;;;;;;6.50;1.60;;;15.60;99.90;;;;;;5076383;28;20172;-49
2023/03/24 12:06:22;;;;;;;5.03;1.60;;;15.60;99.90;;;;;;5075396;28;20202;-48
2023/03/24 12:08:56;;;;;;;10.93;2.00;;;15.70;99.90;;;;;;5076231;28;20168;-49
2023/03/24 12:11:40;;;;;;;7.83;1.90;;;15.80;99.90;;;;;;5076029;28;20203;-49
2023/03/24 12:14:07;;;;;;;5.27;1.70;;;15.80;99.90;;;;;;5075830;28;20668;-48
2023/03/24 12:17:12;;;;;;;8.90;2.07;;;15.70;99.90;;;;;;5075737;28;20249;-50
2023/03/24 12:20:01;;;;;;;7.43;2.00;;;15.80;99.90;;;;;;5072562;28;20198;-48
2023/03/24 12:22:52;;;;;;;7.27;1.53;;;16.00;99.90;;;;;;5075137;28;20244;-50
2023/03/24 12:25:40;;;;;;;3.13;1.20;;;16.20;99.90;;;;;;5075853;28;20201;-48
2023/03/24 12:28:27;;;;;;;7.10;1.63;;;16.20;99.90;;;;;;5075601;28;20167;-49
2023/03/24 12:31:27;;;;;;;9.77;2.50;;;16.10;99.90;;;;;;5075420;28;20269;-49
2023/03/24 12:34:15;;;;;;;8.07;1.80;;;16.00;99.90;;;;;;5057378;28;20187;-50
2023/03/24 12:36:45;;;;;;;3.53;1.40;;;15.90;99.90;;;;;;5075899;28;20210;-48
2023/03/24 12:39:14;;;;;;;8.37;1.63;;;15.90;99.90;;;;;;5075530;28;20172;-48
2023/03/24 12:42:02;;;;;;;10.30;1.57;;;15.90;99.90;;;;;;5075334;28;20214;-49
2023/03/24 12:44:39;;;;;;;6.87;1.57;;;15.80;99.90;;;;;;5075778;28;20199;-49
2023/03/24 12:47:05;;;;;;;3.60;1.47;;;15.80;99.90;;;;;;5075477;28;20159;-48
2023/03/24 12:49:59;;;;;;;6.87;1.67;;;15.90;99.90;;;;;;5075085;28;20665;-48
2023/03/24 12:52:59;;;;;;;4.03;0.73;;;16.10;99.90;;;;;;5075053;28;20203;-48
2023/03/24 12:55:30;;;;;;;6.20;1.37;;;16.30;99.90;;;;;;5075281;28;20255;-50
2023/03/24 12:58:03;;;;;;;5.33;1.37;;;16.40;99.90;;;;;;5075184;28;20581;-49
2023/03/24 13:00:40;;;;;;;3.77;0.90;;;16.50;99.90;;;;;;5075143;28;20163;-50
2023/03/24 13:03:14;;;;;;;5.70;1.23;;;16.40;99.90;;;;;;5074896;28;20638;-49
2023/03/24 13:05:49;;;;;;;7.20;1.00;;;16.30;99.90;;;;;;5074744;28;20187;-49
2023/03/24 13:08:22;;;;;;;6.77;1.10;;;16.10;99.90;;;;;;5075072;28;20163;-48